createdAt,value
2019-05-20T00:03:24.133Z,52.1
2019-05-20T00:08:21.139Z,52.2
2019-05-20T00:13:18.309Z,52.8
2019-05-20T00:18:15.064Z,52.5
2019-05-20T00:23:11.927Z,52.4
2019-05-20T00:28:09.011Z,53
2019-05-20T00:33:06.129Z,52.6
2019-05-20T00:38:03.339Z,52.6
2019-05-20T00:43:00.094Z,53.3
2019-05-20T00:47:57.024Z,53.7
2019-05-20T00:52:54.175Z,53.6
2019-05-20T00:57:51.100Z,53.8
2019-05-20T01:02:56.281Z,53.5
2019-05-20T01:07:44.706Z,53.3
2019-05-20T01:12:41.704Z,52.3
2019-05-20T01:17:38.648Z,52.2
2019-05-20T01:22:35.621Z,51.8
2019-05-20T01:27:32.520Z,51.9
2019-05-20T01:32:29.502Z,51.8
2019-05-20T01:37:26.547Z,51.6
2019-05-20T01:42:23.882Z,51.9
2019-05-20T01:47:20.849Z,52.1
2019-05-20T01:52:18.457Z,52
2019-05-20T01:57:15.445Z,51.7
2019-05-20T02:02:12.416Z,51.8
2019-05-20T02:07:09.359Z,51.9
2019-05-20T02:12:06.655Z,52
2019-05-20T02:17:03.709Z,52.1
2019-05-20T02:22:00.931Z,51.3
2019-05-20T02:26:57.822Z,51.3
2019-05-20T02:31:55.037Z,51.6
2019-05-20T02:36:51.777Z,51.4
2019-05-20T02:41:48.675Z,51.9
2019-05-20T02:46:45.740Z,51.4
2019-05-20T02:51:43.190Z,51.2
2019-05-20T02:56:40.475Z,51.1
2019-05-20T03:01:37.650Z,51.3
2019-05-20T03:06:34.737Z,51.2
2019-05-20T03:11:31.629Z,51.1
2019-05-20T03:16:28.737Z,51.1
2019-05-20T03:21:25.899Z,50.8
2019-05-20T03:26:23.350Z,50.5
2019-05-20T03:31:20.340Z,51
2019-05-20T03:36:17.307Z,51.6
2019-05-20T03:41:14.340Z,52.4
2019-05-20T03:46:11.832Z,52.2
2019-05-20T03:51:09.086Z,53
2019-05-20T03:56:06.096Z,53.6
2019-05-20T04:01:02.596Z,52.8
2019-05-20T04:05:59.519Z,52.8
2019-05-20T04:15:58.848Z,53
2019-05-20T04:20:55.996Z,53.3
2019-05-20T04:25:53.753Z,52.5
2019-05-20T04:30:50.703Z,52.8
2019-05-20T04:35:49.727Z,52.4
2019-05-20T04:40:48.824Z,52.4
2019-05-20T04:45:45.192Z,51.6
2019-05-20T04:50:44.729Z,51.5
2019-05-20T04:55:41.977Z,50.5
2019-05-20T05:00:39.064Z,49.7
2019-05-20T05:05:37.872Z,49.4
2019-05-20T05:10:33.515Z,49.7
2019-05-20T05:15:29.850Z,49.6
2019-05-20T05:20:26.971Z,48.8
2019-05-20T05:25:24.176Z,48.8
2019-05-20T05:30:21.383Z,48.9
2019-05-20T05:35:18.980Z,48.8
2019-05-20T05:40:16.528Z,48.9
2019-05-20T05:45:13.665Z,48.7
2019-05-20T05:50:11.155Z,48.7
2019-05-20T05:55:08.076Z,48.6
2019-05-20T06:00:05.196Z,49.2
2019-05-20T06:05:02.087Z,48.9
2019-05-20T06:09:59.253Z,49.4
2019-05-20T06:14:56.407Z,49
2019-05-20T06:19:53.146Z,49.2
2019-05-20T06:24:50.144Z,48.6
2019-05-20T06:29:47.651Z,49.6
2019-05-20T06:34:44.155Z,49.3
2019-05-20T06:39:41.502Z,48.8
2019-05-20T06:44:51.590Z,48.8
2019-05-20T06:49:35.982Z,48.5
2019-05-20T06:54:33.005Z,47.8
2019-05-20T06:59:30.155Z,48.2
2019-05-20T07:04:27.485Z,48.1
2019-05-20T07:09:24.904Z,47.9
2019-05-20T07:14:22.235Z,47.6
2019-05-20T07:19:19.392Z,47.7
2019-05-20T07:24:16.902Z,47.9
2019-05-20T07:29:14.426Z,47.3
2019-05-20T07:34:11.738Z,46.2
2019-05-20T07:39:08.813Z,46.8
2019-05-20T07:44:06.072Z,46.6
2019-05-20T07:49:03.152Z,47
2019-05-20T07:54:00.859Z,47.3
2019-05-20T07:58:57.735Z,46.2
2019-05-20T08:03:54.787Z,46.4
2019-05-20T08:08:51.927Z,46.8
2019-05-20T08:13:49.127Z,46.8
2019-05-20T08:18:45.820Z,46.8
2019-05-20T08:23:43.164Z,45.9
2019-05-20T08:28:40.789Z,45.4
2019-05-20T08:33:38.491Z,45.7
2019-05-20T08:38:35.676Z,45.9
2019-05-20T08:43:32.657Z,45.7
2019-05-20T08:48:30.308Z,44.8
2019-05-20T08:53:28.117Z,45.1
2019-05-20T08:58:25.762Z,45.3
2019-05-20T09:03:23.647Z,44.9
2019-05-20T09:08:20.842Z,45.1
2019-05-20T09:13:17.977Z,43.6
2019-05-20T09:18:15.282Z,43.2
2019-05-20T09:23:12.715Z,44.1
2019-05-20T09:28:09.526Z,43.8
2019-05-20T09:33:06.969Z,43.9
2019-05-20T09:38:17.596Z,43.3
2019-05-20T09:43:01.265Z,43.9
2019-05-20T09:47:58.536Z,42
2019-05-20T09:52:56.268Z,41.8
2019-05-20T09:57:53.890Z,41.9
2019-05-20T10:02:50.631Z,42.1
2019-05-20T10:07:48.052Z,42.9
2019-05-20T10:12:46.703Z,43.1
2019-05-20T10:17:41.961Z,42.6
2019-05-20T10:22:38.929Z,41.2
2019-05-20T10:27:35.953Z,40.9
2019-05-20T10:32:33.135Z,41.8
2019-05-20T10:37:30.037Z,40.5
2019-05-20T10:42:27.455Z,38.5
2019-05-20T10:47:24.747Z,41.2
2019-05-20T10:52:21.506Z,41.5
2019-05-20T10:57:18.332Z,43
2019-05-20T11:02:16.000Z,44.9
2019-05-20T11:07:12.897Z,48
2019-05-20T11:12:09.583Z,49
2019-05-20T11:17:06.351Z,48.7
2019-05-20T11:22:03.371Z,48.7
2019-05-20T11:27:00.694Z,47.9
2019-05-20T11:31:57.197Z,46.9
2019-05-20T11:36:54.280Z,43.8
2019-05-20T11:41:54.119Z,44.5
2019-05-20T11:46:48.173Z,44
2019-05-20T11:51:45.005Z,43.2
2019-05-20T11:56:42.144Z,43.8
2019-05-20T12:01:39.143Z,44.9
2019-05-20T12:06:36.684Z,45.6
2019-05-20T12:11:34.084Z,45.5
2019-05-20T12:16:31.811Z,46.5
2019-05-20T12:21:28.759Z,48.1
2019-05-20T12:26:25.792Z,46.3
2019-05-20T12:31:23.000Z,45
2019-05-20T12:36:20.111Z,46.4
2019-05-20T12:41:17.505Z,51.2
2019-05-20T12:46:14.423Z,55.1
2019-05-20T12:51:14.447Z,57.5
2019-05-20T12:56:08.487Z,58.4
2019-05-20T13:01:05.408Z,59
2019-05-20T13:06:02.205Z,58.5
2019-05-20T13:10:59.237Z,58.3
2019-05-20T13:15:56.262Z,59.5
2019-05-20T13:20:53.790Z,60.2
2019-05-20T13:25:51.220Z,59
2019-05-20T13:30:48.290Z,58.3
2019-05-20T13:35:45.554Z,57.7
2019-05-20T13:40:46.979Z,56.5
2019-05-20T13:45:41.826Z,53.9
2019-05-20T13:50:39.061Z,52.6
2019-05-20T13:55:35.974Z,52.7
2019-05-20T14:00:32.685Z,53.1
2019-05-20T14:05:29.709Z,52.5
2019-05-20T14:10:27.195Z,50
2019-05-20T14:15:24.096Z,49
2019-05-20T14:20:21.621Z,49.5
2019-05-20T14:25:18.492Z,48.8
2019-05-20T14:30:15.503Z,46.5
2019-05-20T14:35:12.509Z,45.7
2019-05-20T14:40:09.645Z,46.3
2019-05-20T14:45:06.813Z,47.2
2019-05-20T14:50:04.017Z,48.5
2019-05-20T14:55:01.790Z,53.9
2019-05-20T14:59:58.733Z,54.5
2019-05-20T15:04:55.903Z,50.1
2019-05-20T15:09:52.908Z,51.6
2019-05-20T15:14:49.596Z,52.2
2019-05-20T15:19:46.158Z,52.1
2019-05-20T15:24:43.830Z,55
2019-05-20T15:29:40.645Z,55.9
2019-05-20T15:34:37.741Z,56.6
2019-05-20T15:39:34.789Z,55.7
2019-05-20T15:44:32.570Z,56.1
2019-05-20T15:49:29.884Z,56
2019-05-20T15:54:26.780Z,55.3
2019-05-20T15:59:24.001Z,54.6
2019-05-20T16:04:21.328Z,56.8
2019-05-20T16:09:18.183Z,58
2019-05-20T16:14:15.729Z,57
2019-05-20T16:19:12.869Z,55.9
2019-05-20T16:24:10.208Z,55.3
2019-05-20T16:29:07.033Z,55
2019-05-20T16:34:04.305Z,55
2019-05-20T16:39:01.605Z,55.3
2019-05-20T16:43:59.265Z,56.2
2019-05-20T16:48:56.434Z,57.2
2019-05-20T16:53:53.616Z,56.5
2019-05-20T16:58:50.882Z,57
2019-05-20T17:03:47.837Z,57.7
2019-05-20T17:08:45.071Z,57.6
2019-05-20T17:13:42.463Z,56.8
2019-05-20T17:18:40.188Z,55.6
2019-05-20T17:23:37.166Z,52.9
2019-05-20T17:28:34.275Z,53.5
2019-05-20T17:33:31.434Z,53.9
2019-05-20T17:38:28.595Z,53.7
2019-05-20T17:43:25.683Z,53.2
2019-05-20T17:48:23.007Z,52.8
2019-05-20T17:53:19.791Z,53.2
2019-05-20T17:58:17.350Z,53.1
2019-05-20T18:03:13.873Z,53.6
2019-05-20T18:08:11.071Z,53.4
2019-05-20T18:13:08.411Z,53.5
2019-05-20T18:18:05.953Z,56.2
2019-05-20T18:23:03.281Z,57.5
2019-05-20T18:28:00.187Z,57.6
2019-05-20T18:32:57.539Z,58.7
2019-05-20T18:37:54.553Z,58.1
2019-05-20T18:42:51.093Z,58.2
2019-05-20T18:47:48.681Z,58.5
2019-05-20T18:52:45.250Z,58.7
2019-05-20T18:57:42.548Z,55.7
2019-05-20T19:02:39.806Z,52.5
2019-05-20T19:07:36.892Z,54.8
2019-05-20T19:12:33.979Z,55.5
2019-05-20T19:17:31.045Z,57
2019-05-20T19:22:27.599Z,58.4
2019-05-20T19:27:24.616Z,59.3
2019-05-20T19:32:21.836Z,59.1
2019-05-20T19:37:19.048Z,59.7
2019-05-20T19:42:15.979Z,60.1
2019-05-20T19:47:12.265Z,59.8
2019-05-20T19:52:09.378Z,59.9
2019-05-20T19:57:06.552Z,60.6
2019-05-20T20:02:16.354Z,61.1
2019-05-20T20:07:01.010Z,60.9
2019-05-20T20:11:57.726Z,61.1
2019-05-20T20:16:55.238Z,62.7
2019-05-20T20:21:52.054Z,61.4
2019-05-20T20:26:49.450Z,61.2
2019-05-20T20:31:47.106Z,61.1
2019-05-20T20:36:44.213Z,61
2019-05-20T20:41:41.305Z,61.3
2019-05-20T20:46:40.475Z,62.5
2019-05-20T20:51:36.043Z,61.5
2019-05-20T20:56:34.247Z,61.2
2019-05-20T21:01:30.665Z,61.7
2019-05-20T21:06:27.780Z,61.4
2019-05-20T21:11:24.926Z,61.7
2019-05-20T21:16:21.545Z,61.8
2019-05-20T21:21:18.610Z,61.6
2019-05-20T21:26:15.736Z,61.3
2019-05-20T21:31:12.708Z,61.9
2019-05-20T21:36:10.045Z,61.7
2019-05-20T21:41:06.880Z,62
2019-05-20T21:46:04.204Z,62.1
2019-05-20T21:51:01.145Z,62
2019-05-20T21:55:58.030Z,62.2
2019-05-20T22:00:55.174Z,62.4
2019-05-20T22:05:52.676Z,62.1
2019-05-20T22:10:49.491Z,62.4
2019-05-20T22:15:46.392Z,62.4
2019-05-20T22:20:43.953Z,62.7
2019-05-20T22:25:41.267Z,62.6
2019-05-20T22:30:38.709Z,62.3
2019-05-20T22:35:35.481Z,62.3
2019-05-20T22:40:32.628Z,62.6
2019-05-20T22:45:29.697Z,62.8
2019-05-20T22:50:26.922Z,63
2019-05-20T22:55:24.160Z,62.8
2019-05-20T23:00:21.204Z,63.1
2019-05-20T23:05:18.723Z,63
2019-05-20T23:10:15.845Z,62.6
2019-05-20T23:15:12.836Z,62.4
2019-05-20T23:25:06.821Z,61.5
2019-05-20T23:30:04.409Z,61.6
2019-05-20T23:35:02.176Z,62.6
2019-05-20T23:39:58.837Z,61.8
2019-05-20T23:44:56.167Z,61.7
2019-05-20T23:49:52.878Z,61.8
2019-05-20T23:54:50.456Z,61.5
2019-05-20T23:59:47.979Z,61.7
